Alief, Texas
Current Conditions -  °F | °C
As of 8:53 AM on Monday 24 Nov 2014 (Local Time) from KSGR Reporting Station
Clear Clear  
Wind Chill: 56°   Ceiling: Unl
Heat Index: 56°   Visibility: 10mi
Dew Point: 39°   Wind: 15mph
Humidity: 53%   Direction: 350°N
Pressure: 30.03"   Gusts: 22mph
Location:  29.71°N, 95.6°W
Report Text: KSGR 241453Z 35013G19KT 10SM CLR 13/04 A3003 RMK AO2 SLP172 T01330039 51043
Loading
Personal Weather Stations






























Interactive Weather Map New forecast layout! Learn more

10-Day Weather Forecast

Advertisements
Track Severe Weather on mobile